sensor_id;sensor_type;location;lat;lon;timestamp;pressure;altitude;pressure_sealevel;temperature;humidity
70314;BME280;57725;47.526;18.986;2023-06-22T00:02:24;100018.03;;;25.80;69.36
70314;BME280;57725;47.526;18.986;2023-06-22T00:04:49;100006.66;;;25.78;68.90
70314;BME280;57725;47.526;18.986;2023-06-22T00:07:19;100025.41;;;25.78;69.29
70314;BME280;57725;47.526;18.986;2023-06-22T00:09:45;100026.41;;;25.77;69.50
70314;BME280;57725;47.526;18.986;2023-06-22T00:12:10;100013.00;;;25.77;69.45
70314;BME280;57725;47.526;18.986;2023-06-22T00:14:38;100024.88;;;25.75;69.08
70314;BME280;57725;47.526;18.986;2023-06-22T00:17:03;100025.72;;;25.75;69.01
70314;BME280;57725;47.526;18.986;2023-06-22T00:19:28;100022.19;;;25.75;69.20
70314;BME280;57725;47.526;18.986;2023-06-22T00:21:56;100019.66;;;25.73;69.09
70314;BME280;57725;47.526;18.986;2023-06-22T00:24:25;100019.84;;;25.72;69.09
70314;BME280;57725;47.526;18.986;2023-06-22T00:26:50;100025.38;;;25.70;69.54
70314;BME280;57725;47.526;18.986;2023-06-22T00:29:16;100029.88;;;25.70;69.34
70314;BME280;57725;47.526;18.986;2023-06-22T00:31:42;100038.06;;;25.68;69.20
70314;BME280;57725;47.526;18.986;2023-06-22T00:34:12;100027.34;;;25.68;69.19
70314;BME280;57725;47.526;18.986;2023-06-22T00:36:43;100013.28;;;25.66;69.65
70314;BME280;57725;47.526;18.986;2023-06-22T00:39:08;100021.47;;;25.65;69.65
70314;BME280;57725;47.526;18.986;2023-06-22T00:41:33;100014.28;;;25.65;69.77
70314;BME280;57725;47.526;18.986;2023-06-22T00:44:01;100014.44;;;25.64;69.28
70314;BME280;57725;47.526;18.986;2023-06-22T00:46:27;100020.63;;;25.64;69.37
70314;BME280;57725;47.526;18.986;2023-06-22T00:48:55;100018.09;;;25.63;69.68
70314;BME280;57725;47.526;18.986;2023-06-22T00:51:24;100010.38;;;25.59;69.50
70314;BME280;57725;47.526;18.986;2023-06-22T00:53:51;100013.91;;;25.60;69.50
70314;BME280;57725;47.526;18.986;2023-06-22T00:56:20;100012.69;;;25.54;69.98
70314;BME280;57725;47.526;18.986;2023-06-22T00:58:50;100014.31;;;25.47;69.97
70314;BME280;57725;47.526;18.986;2023-06-22T01:01:18;100015.16;;;25.48;70.47
70314;BME280;57725;47.526;18.986;2023-06-22T01:03:51;100009.97;;;25.46;70.75
70314;BME280;57725;47.526;18.986;2023-06-22T01:06:28;100006.28;;;25.47;70.70
70314;BME280;57725;47.526;18.986;2023-06-22T01:09:02;100000.25;;;25.45;70.41
70314;BME280;57725;47.526;18.986;2023-06-22T01:11:40;100002.91;;;25.45;70.04
70314;BME280;57725;47.526;18.986;2023-06-22T01:14:23;100003.63;;;25.47;70.22
70314;BME280;57725;47.526;18.986;2023-06-22T01:16:51;100008.97;;;25.47;70.33
70314;BME280;57725;47.526;18.986;2023-06-22T01:19:29;100005.44;;;25.47;70.34
70314;BME280;57725;47.526;18.986;2023-06-22T01:21:58;100007.28;;;25.46;70.37
70314;BME280;57725;47.526;18.986;2023-06-22T01:24:32;100001.09;;;25.46;70.25
70314;BME280;57725;47.526;18.986;2023-06-22T01:29:55;100001.25;;;25.44;70.38
70314;BME280;57725;47.526;18.986;2023-06-22T01:32:31;99999.56;;;25.43;70.54
70314;BME280;57725;47.526;18.986;2023-06-22T01:34:58;99996.88;;;25.43;70.61
70314;BME280;57725;47.526;18.986;2023-06-22T01:37:29;100005.91;;;25.42;70.71
70314;BME280;57725;47.526;18.986;2023-06-22T01:39:59;99999.03;;;25.40;70.63
70314;BME280;57725;47.526;18.986;2023-06-22T01:42:29;99991.00;;;25.40;70.86
70314;BME280;57725;47.526;18.986;2023-06-22T01:44:56;100000.03;;;25.39;71.16
70314;BME280;57725;47.526;18.986;2023-06-22T01:47:27;100001.03;;;25.38;70.78
70314;BME280;57725;47.526;18.986;2023-06-22T01:49:55;100004.72;;;25.37;70.81
70314;BME280;57725;47.526;18.986;2023-06-22T01:52:21;100009.22;;;25.36;70.87
70314;BME280;57725;47.526;18.986;2023-06-22T01:54:46;100016.41;;;25.36;71.35
70314;BME280;57725;47.526;18.986;2023-06-22T01:57:13;100016.56;;;25.34;71.15
70314;BME280;57725;47.526;18.986;2023-06-22T02:02:18;100010.38;;;25.34;71.51
70314;BME280;57725;47.526;18.986;2023-06-22T02:07:23;100010.69;;;25.31;71.82
70314;BME280;57725;47.526;18.986;2023-06-22T02:09:54;100012.00;;;25.27;71.50
70314;BME280;57725;47.526;18.986;2023-06-22T02:12:24;100020.69;;;25.29;71.37
70314;BME280;57725;47.526;18.986;2023-06-22T02:14:53;100013.66;;;25.27;71.82
70314;BME280;57725;47.526;18.986;2023-06-22T02:17:19;100008.78;;;25.23;71.96
70314;BME280;57725;47.526;18.986;2023-06-22T02:19:48;100024.53;;;25.26;72.13
70314;BME280;57725;47.526;18.986;2023-06-22T02:22:13;100032.72;;;25.24;71.92
70314;BME280;57725;47.526;18.986;2023-06-22T02:24:39;100031.88;;;25.24;72.40
70314;BME280;57725;47.526;18.986;2023-06-22T02:27:10;100038.22;;;25.23;72.71
70314;BME280;57725;47.526;18.986;2023-06-22T02:29:36;100034.84;;;25.21;72.60
70314;BME280;57725;47.526;18.986;2023-06-22T02:32:04;100030.50;;;25.20;72.76
70314;BME280;57725;47.526;18.986;2023-06-22T02:34:30;100027.81;;;25.20;72.50
70314;BME280;57725;47.526;18.986;2023-06-22T02:36:55;100024.31;;;25.19;72.84
70314;BME280;57725;47.526;18.986;2023-06-22T02:39:22;100020.94;;;25.17;72.68
70314;BME280;57725;47.526;18.986;2023-06-22T02:41:51;100024.47;;;25.18;72.48
70314;BME280;57725;47.526;18.986;2023-06-22T02:44:17;100026.63;;;25.14;72.90
70314;BME280;57725;47.526;18.986;2023-06-22T02:46:43;100036.31;;;25.15;72.66
70314;BME280;57725;47.526;18.986;2023-06-22T02:49:11;100032.13;;;25.13;72.59
70314;BME280;57725;47.526;18.986;2023-06-22T02:51:39;100041.00;;;25.13;72.77
70314;BME280;57725;47.526;18.986;2023-06-22T02:54:07;100031.28;;;25.12;72.87
70314;BME280;57725;47.526;18.986;2023-06-22T02:56:34;100033.28;;;25.10;73.38
70314;BME280;57725;47.526;18.986;2023-06-22T02:59:02;100039.47;;;25.11;73.20
70314;BME280;57725;47.526;18.986;2023-06-22T03:01:28;100032.44;;;25.10;73.33
70314;BME280;57725;47.526;18.986;2023-06-22T03:03:56;100029.91;;;25.08;73.06
70314;BME280;57725;47.526;18.986;2023-06-22T03:06:27;100034.56;;;25.06;72.89
70314;BME280;57725;47.526;18.986;2023-06-22T03:09:00;100032.22;;;25.03;74.02
70314;BME280;57725;47.526;18.986;2023-06-22T03:11:26;100033.72;;;25.06;74.14
70314;BME280;57725;47.526;18.986;2023-06-22T03:13:54;100039.22;;;25.04;73.81
70314;BME280;57725;47.526;18.986;2023-06-22T03:16:19;100041.88;;;25.04;74.22
70314;BME280;57725;47.526;18.986;2023-06-22T03:18:45;100037.56;;;25.03;73.77
70314;BME280;57725;47.526;18.986;2023-06-22T03:21:10;100030.53;;;25.02;73.95
70314;BME280;57725;47.526;18.986;2023-06-22T03:23:36;100034.19;;;25.01;74.28
70314;BME280;57725;47.526;18.986;2023-06-22T03:26:01;100029.84;;;25.00;74.77
70314;BME280;57725;47.526;18.986;2023-06-22T03:28:27;100034.34;;;25.00;75.10
70314;BME280;57725;47.526;18.986;2023-06-22T03:30:52;100023.81;;;24.98;75.06
70314;BME280;57725;47.526;18.986;2023-06-22T03:33:18;100022.13;;;24.97;74.84
70314;BME280;57725;47.526;18.986;2023-06-22T03:35:45;100020.59;;;24.95;75.13
70314;BME280;57725;47.526;18.986;2023-06-22T03:38:11;100018.75;;;24.95;75.36
70314;BME280;57725;47.526;18.986;2023-06-22T03:40:36;100021.44;;;24.95;74.91
70314;BME280;57725;47.526;18.986;2023-06-22T03:43:02;100019.75;;;24.94;75.26
70314;BME280;57725;47.526;18.986;2023-06-22T03:45:29;100015.38;;;24.93;75.46
70314;BME280;57725;47.526;18.986;2023-06-22T03:47:55;100019.91;;;24.93;75.14
70314;BME280;57725;47.526;18.986;2023-06-22T03:50:25;100016.53;;;24.90;75.70
70314;BME280;57725;47.526;18.986;2023-06-22T03:52:50;100018.34;;;24.90;75.37
70314;BME280;57725;47.526;18.986;2023-06-22T03:55:19;100025.53;;;24.89;75.36
70314;BME280;57725;47.526;18.986;2023-06-22T03:57:46;100028.38;;;24.88;75.93
70314;BME280;57725;47.526;18.986;2023-06-22T04:00:12;100036.38;;;24.88;75.84
70314;BME280;57725;47.526;18.986;2023-06-22T04:02:45;100043.56;;;24.87;75.91
70314;BME280;57725;47.526;18.986;2023-06-22T04:05:15;100051.75;;;24.86;75.83
70314;BME280;57725;47.526;18.986;2023-06-22T04:07:42;100043.88;;;24.84;75.95
70314;BME280;57725;47.526;18.986;2023-06-22T04:10:12;100054.69;;;24.83;76.27
70314;BME280;57725;47.526;18.986;2023-06-22T04:12:38;100059.91;;;24.84;75.76
70314;BME280;57725;47.526;18.986;2023-06-22T04:15:08;100060.06;;;24.83;76.34
70314;BME280;57725;47.526;18.986;2023-06-22T04:17:34;100053.88;;;24.82;76.09
70314;BME280;57725;47.526;18.986;2023-06-22T04:20:02;100046.16;;;24.79;76.22
70314;BME280;57725;47.526;18.986;2023-06-22T04:22:33;100055.88;;;24.80;76.15
70314;BME280;57725;47.526;18.986;2023-06-22T04:24:59;100054.19;;;24.79;76.11
70314;BME280;57725;47.526;18.986;2023-06-22T04:27:24;100053.34;;;24.79;76.04
70314;BME280;57725;47.526;18.986;2023-06-22T04:29:52;100053.50;;;24.77;75.93
70314;BME280;57725;47.526;18.986;2023-06-22T04:32:18;100057.16;;;24.76;76.41
70314;BME280;57725;47.526;18.986;2023-06-22T04:34:43;100052.94;;;24.74;76.15
70314;BME280;57725;47.526;18.986;2023-06-22T04:37:09;100053.78;;;24.74;76.15
70314;BME280;57725;47.526;18.986;2023-06-22T04:39:34;100052.25;;;24.72;76.45
70314;BME280;57725;47.526;18.986;2023-06-22T04:42:03;100055.78;;;24.72;76.14
70314;BME280;57725;47.526;18.986;2023-06-22T04:44:31;100057.59;;;24.72;76.67
70314;BME280;57725;47.526;18.986;2023-06-22T04:46:57;100065.63;;;24.72;76.76
70314;BME280;57725;47.526;18.986;2023-06-22T04:49:29;100065.78;;;24.70;76.94
70314;BME280;57725;47.526;18.986;2023-06-22T04:52:02;100062.44;;;24.68;77.18
70314;BME280;57725;47.526;18.986;2023-06-22T04:54:28;100059.75;;;24.68;77.46
70314;BME280;57725;47.526;18.986;2023-06-22T04:56:59;100066.75;;;24.69;77.61
70314;BME280;57725;47.526;18.986;2023-06-22T04:59:28;100063.41;;;24.67;77.69
70314;BME280;57725;47.526;18.986;2023-06-22T05:01:59;100049.81;;;24.61;78.15
70314;BME280;57725;47.526;18.986;2023-06-22T05:04:26;100067.94;;;24.67;77.85
70314;BME280;57725;47.526;18.986;2023-06-22T05:06:53;100067.22;;;24.65;77.94
70314;BME280;57725;47.526;18.986;2023-06-22T05:09:19;100066.38;;;24.64;78.25
70314;BME280;57725;47.526;18.986;2023-06-22T05:11:45;100063.03;;;24.62;78.72
70314;BME280;57725;47.526;18.986;2023-06-22T05:14:13;100069.22;;;24.63;78.62
70314;BME280;57725;47.526;18.986;2023-06-22T05:16:41;100069.34;;;24.61;78.69
70314;BME280;57725;47.526;18.986;2023-06-22T05:19:10;100074.56;;;24.63;78.67
70314;BME280;57725;47.526;18.986;2023-06-22T05:21:36;100086.22;;;24.62;78.69
70314;BME280;57725;47.526;18.986;2023-06-22T05:24:04;100086.22;;;24.62;78.83
70314;BME280;57725;47.526;18.986;2023-06-22T05:26:33;100089.06;;;24.60;79.28
70314;BME280;57725;47.526;18.986;2023-06-22T05:29:00;100094.41;;;24.60;79.28
70314;BME280;57725;47.526;18.986;2023-06-22T05:31:26;100088.22;;;24.60;79.24
70314;BME280;57725;47.526;18.986;2023-06-22T05:33:55;100086.69;;;24.57;79.35
70314;BME280;57725;47.526;18.986;2023-06-22T05:36:21;100093.69;;;24.58;79.49
70314;BME280;57725;47.526;18.986;2023-06-22T05:38:50;100104.56;;;24.57;79.43
70314;BME280;57725;47.526;18.986;2023-06-22T05:41:16;100100.22;;;24.56;79.66
70314;BME280;57725;47.526;18.986;2023-06-22T05:43:43;100103.56;;;24.58;79.90
70314;BME280;57725;47.526;18.986;2023-06-22T05:46:11;100111.03;;;24.54;79.92
70314;BME280;57725;47.526;18.986;2023-06-22T05:48:37;100105.56;;;24.56;80.07
70314;BME280;57725;47.526;18.986;2023-06-22T05:51:02;100110.91;;;24.56;80.29
70314;BME280;57725;47.526;18.986;2023-06-22T05:53:28;100115.41;;;24.55;80.27
70314;BME280;57725;47.526;18.986;2023-06-22T05:55:58;100114.56;;;24.54;80.36
70314;BME280;57725;47.526;18.986;2023-06-22T05:58:23;100108.50;;;24.52;80.48
70314;BME280;57725;47.526;18.986;2023-06-22T06:00:51;100106.53;;;24.54;80.53
70314;BME280;57725;47.526;18.986;2023-06-22T06:03:16;100107.38;;;24.55;80.82
70314;BME280;57725;47.526;18.986;2023-06-22T06:05:45;100111.03;;;24.54;81.06
70314;BME280;57725;47.526;18.986;2023-06-22T06:08:11;100112.72;;;24.55;81.19
70314;BME280;57725;47.526;18.986;2023-06-22T06:10:39;100119.91;;;24.54;81.69
70314;BME280;57725;47.526;18.986;2023-06-22T06:13:05;100117.94;;;24.57;81.87
70314;BME280;57725;47.526;18.986;2023-06-22T06:15:34;100112.59;;;24.57;82.57
70314;BME280;57725;47.526;18.986;2023-06-22T06:18:02;100106.53;;;24.54;83.01
70314;BME280;57725;47.526;18.986;2023-06-22T06:20:30;100105.41;;;24.57;82.91
70314;BME280;57725;47.526;18.986;2023-06-22T06:22:56;100104.38;;;24.58;83.25
70314;BME280;57725;47.526;18.986;2023-06-22T06:25:22;100104.25;;;24.60;83.89
70314;BME280;57725;47.526;18.986;2023-06-22T06:27:51;100103.25;;;24.61;83.82
70314;BME280;57725;47.526;18.986;2023-06-22T06:30:18;100093.41;;;24.61;83.80
70314;BME280;57725;47.526;18.986;2023-06-22T06:32:46;100103.94;;;24.63;83.93
70314;BME280;57725;47.526;18.986;2023-06-22T06:35:15;100100.28;;;24.64;83.94
70314;BME280;57725;47.526;18.986;2023-06-22T06:37:45;100101.13;;;24.64;84.46
70314;BME280;57725;47.526;18.986;2023-06-22T06:40:14;100101.00;;;24.66;84.29
70314;BME280;57725;47.526;18.986;2023-06-22T06:42:46;100102.69;;;24.67;84.17
70314;BME280;57725;47.526;18.986;2023-06-22T06:45:16;100100.84;;;24.67;84.33
70314;BME280;57725;47.526;18.986;2023-06-22T06:47:42;100109.53;;;24.69;84.15
70314;BME280;57725;47.526;18.986;2023-06-22T06:50:10;100105.88;;;24.70;84.51
70314;BME280;57725;47.526;18.986;2023-06-22T06:52:36;100109.25;;;24.72;84.37
70314;BME280;57725;47.526;18.986;2023-06-22T06:55:07;100105.56;;;24.73;84.22
70314;BME280;57725;47.526;18.986;2023-06-22T06:57:35;100104.72;;;24.73;84.39
70314;BME280;57725;47.526;18.986;2023-06-22T07:00:05;100105.56;;;24.73;84.07
70314;BME280;57725;47.526;18.986;2023-06-22T07:02:35;100096.00;;;24.71;83.94
70314;BME280;57725;47.526;18.986;2023-06-22T07:05:03;100098.41;;;24.74;83.90
70314;BME280;57725;47.526;18.986;2023-06-22T07:07:33;100095.72;;;24.74;83.83
70314;BME280;57725;47.526;18.986;2023-06-22T07:09:59;100088.69;;;24.73;84.26
70314;BME280;57725;47.526;18.986;2023-06-22T07:12:24;100091.22;;;24.74;84.32
70314;BME280;57725;47.526;18.986;2023-06-22T07:14:53;100087.69;;;24.74;83.98
70314;BME280;57725;47.526;18.986;2023-06-22T07:17:21;100092.91;;;24.75;84.22
70314;BME280;57725;47.526;18.986;2023-06-22T07:19:49;100100.94;;;24.75;84.17
70314;BME280;57725;47.526;18.986;2023-06-22T07:22:17;100080.53;;;24.74;83.74
70314;BME280;57725;47.526;18.986;2023-06-22T07:24:45;100086.72;;;24.75;83.92
70314;BME280;57725;47.526;18.986;2023-06-22T07:27:10;100087.56;;;24.75;83.84
70314;BME280;57725;47.526;18.986;2023-06-22T07:29:39;100088.41;;;24.76;83.65
70314;BME280;57725;47.526;18.986;2023-06-22T07:32:06;100093.75;;;24.76;83.91
70314;BME280;57725;47.526;18.986;2023-06-22T07:34:33;100090.94;;;24.77;83.75
70314;BME280;57725;47.526;18.986;2023-06-22T07:36:59;100085.56;;;24.77;83.63
70314;BME280;57725;47.526;18.986;2023-06-22T07:39:24;100083.75;;;24.78;83.34
70314;BME280;57725;47.526;18.986;2023-06-22T07:41:51;100080.09;;;24.79;83.59
70314;BME280;57725;47.526;18.986;2023-06-22T07:44:17;100085.44;;;24.79;83.05
70314;BME280;57725;47.526;18.986;2023-06-22T07:46:45;100089.78;;;24.80;83.46
70314;BME280;57725;47.526;18.986;2023-06-22T07:49:12;100081.78;;;24.80;82.88
70314;BME280;57725;47.526;18.986;2023-06-22T07:51:39;100079.94;;;24.80;82.90
70314;BME280;57725;47.526;18.986;2023-06-22T07:54:09;100082.44;;;24.82;82.92
70314;BME280;57725;47.526;18.986;2023-06-22T07:56:35;100083.28;;;24.82;83.19
70314;BME280;57725;47.526;18.986;2023-06-22T07:59:01;100075.56;;;24.79;82.53
70314;BME280;57725;47.526;18.986;2023-06-22T08:01:31;100071.75;;;24.82;82.81
70314;BME280;57725;47.526;18.986;2023-06-22T08:03:56;100072.44;;;24.84;82.29
70314;BME280;57725;47.526;18.986;2023-06-22T08:06:24;100066.94;;;24.85;82.41
70314;BME280;57725;47.526;18.986;2023-06-22T08:08:52;100063.28;;;24.86;82.44
70314;BME280;57725;47.526;18.986;2023-06-22T08:11:24;100064.13;;;24.87;82.59
70314;BME280;57725;47.526;18.986;2023-06-22T08:13:53;100056.94;;;24.87;82.08
70314;BME280;57725;47.526;18.986;2023-06-22T08:16:21;100057.63;;;24.89;82.11
70314;BME280;57725;47.526;18.986;2023-06-22T08:18:48;100064.66;;;24.90;81.98
70314;BME280;57725;47.526;18.986;2023-06-22T08:21:14;100066.34;;;24.92;82.23
70314;BME280;57725;47.526;18.986;2023-06-22T08:23:39;100064.38;;;24.94;81.87
70314;BME280;57725;47.526;18.986;2023-06-22T08:26:07;100067.03;;;24.94;82.14
70314;BME280;57725;47.526;18.986;2023-06-22T08:28:33;100061.53;;;24.95;81.59
70314;BME280;57725;47.526;18.986;2023-06-22T08:30:59;100057.88;;;24.96;81.56
70314;BME280;57725;47.526;18.986;2023-06-22T08:33:26;100061.25;;;24.98;81.59
70314;BME280;57725;47.526;18.986;2023-06-22T08:35:57;100060.25;;;24.99;81.37
70314;BME280;57725;47.526;18.986;2023-06-22T08:38:26;100059.25;;;25.00;81.23
70314;BME280;57725;47.526;18.986;2023-06-22T08:40:54;100056.44;;;25.02;81.41
70314;BME280;57725;47.526;18.986;2023-06-22T08:43:19;100050.09;;;25.03;81.46
70314;BME280;57725;47.526;18.986;2023-06-22T08:45:44;100053.44;;;25.05;81.43
70314;BME280;57725;47.526;18.986;2023-06-22T08:48:10;100047.09;;;25.06;81.25
70314;BME280;57725;47.526;18.986;2023-06-22T08:50:36;100044.25;;;25.07;81.23
70314;BME280;57725;47.526;18.986;2023-06-22T08:53:01;100036.25;;;25.07;80.64
70314;BME280;57725;47.526;18.986;2023-06-22T08:55:27;100041.28;;;25.10;80.96
70314;BME280;57725;47.526;18.986;2023-06-22T08:57:52;100033.13;;;25.12;80.84
70314;BME280;57725;47.526;18.986;2023-06-22T09:00:18;100043.66;;;25.13;80.56
70314;BME280;57725;47.526;18.986;2023-06-22T09:02:50;100036.31;;;25.15;80.93
70314;BME280;57725;47.526;18.986;2023-06-22T09:05:16;100029.31;;;25.14;80.66
70314;BME280;57725;47.526;18.986;2023-06-22T09:07:41;100035.16;;;25.18;80.60
70314;BME280;57725;47.526;18.986;2023-06-22T09:10:12;100032.19;;;25.21;80.51
70314;BME280;57725;47.526;18.986;2023-06-22T09:12:39;100022.31;;;25.21;80.28
70314;BME280;57725;47.526;18.986;2023-06-22T09:15:05;100027.53;;;25.23;80.64
70314;BME280;57725;47.526;18.986;2023-06-22T09:17:32;100023.69;;;25.25;80.40
70314;BME280;57725;47.526;18.986;2023-06-22T09:19:58;100020.84;;;25.27;80.34
70314;BME280;57725;47.526;18.986;2023-06-22T09:22:23;100018.84;;;25.29;79.80
70314;BME280;57725;47.526;18.986;2023-06-22T09:24:58;100027.56;;;25.31;80.09
70314;BME280;57725;47.526;18.986;2023-06-22T09:27:25;100022.91;;;25.33;79.92
70314;BME280;57725;47.526;18.986;2023-06-22T09:29:52;100023.59;;;25.35;79.94
70314;BME280;57725;47.526;18.986;2023-06-22T09:32:18;100021.63;;;25.37;79.37
70314;BME280;57725;47.526;18.986;2023-06-22T09:34:43;100016.06;;;25.39;79.39
70314;BME280;57725;47.526;18.986;2023-06-22T09:37:09;100019.28;;;25.42;79.51
70314;BME280;57725;47.526;18.986;2023-06-22T09:39:34;100013.94;;;25.42;79.09
70314;BME280;57725;47.526;18.986;2023-06-22T09:41:59;100022.66;;;25.44;79.02
70314;BME280;57725;47.526;18.986;2023-06-22T09:44:25;100015.16;;;25.48;79.38
70314;BME280;57725;47.526;18.986;2023-06-22T09:46:51;100023.03;;;25.49;79.09
70314;BME280;57725;47.526;18.986;2023-06-22T09:49:18;100018.34;;;25.51;78.98
70314;BME280;57725;47.526;18.986;2023-06-22T09:51:46;100016.34;;;25.53;78.86
70314;BME280;57725;47.526;18.986;2023-06-22T09:54:14;100016.19;;;25.55;78.71
70314;BME280;57725;47.526;18.986;2023-06-22T09:56:39;100021.25;;;25.58;78.59
70314;BME280;57725;47.526;18.986;2023-06-22T09:59:05;100021.09;;;25.59;78.58
70314;BME280;57725;47.526;18.986;2023-06-22T10:01:30;100010.38;;;25.59;78.68
70314;BME280;57725;47.526;18.986;2023-06-22T10:03:58;100010.91;;;25.63;78.55
70314;BME280;57725;47.526;18.986;2023-06-22T10:06:26;100010.59;;;25.66;78.23
70314;BME280;57725;47.526;18.986;2023-06-22T10:08:51;100009.59;;;25.67;78.49
70314;BME280;57725;47.526;18.986;2023-06-22T10:11:17;100008.47;;;25.70;78.24
70314;BME280;57725;47.526;18.986;2023-06-22T10:13:42;100010.97;;;25.71;78.19
70314;BME280;57725;47.526;18.986;2023-06-22T10:16:15;100014.31;;;25.73;78.41
70314;BME280;57725;47.526;18.986;2023-06-22T10:18:42;100006.81;;;25.77;77.98
70314;BME280;57725;47.526;18.986;2023-06-22T10:21:11;99995.94;;;25.78;77.97
70314;BME280;57725;47.526;18.986;2023-06-22T10:23:38;99997.47;;;25.81;78.09
70314;BME280;57725;47.526;18.986;2023-06-22T10:26:06;99996.31;;;25.83;77.63
70314;BME280;57725;47.526;18.986;2023-06-22T10:28:34;99995.13;;;25.86;77.85
70314;BME280;57725;47.526;18.986;2023-06-22T10:31:02;99994.97;;;25.87;78.08
70314;BME280;57725;47.526;18.986;2023-06-22T10:33:29;99996.50;;;25.90;78.47
70314;BME280;57725;47.526;18.986;2023-06-22T10:35:57;100000.84;;;25.91;78.26
70314;BME280;57725;47.526;18.986;2023-06-22T10:38:23;100000.38;;;25.95;78.32
70314;BME280;57725;47.526;18.986;2023-06-22T10:40:50;99989.47;;;25.97;78.20
70314;BME280;57725;47.526;18.986;2023-06-22T10:43:19;99992.69;;;26.01;78.68
70314;BME280;57725;47.526;18.986;2023-06-22T10:45:45;99988.84;;;26.03;78.41
70314;BME280;57725;47.526;18.986;2023-06-22T10:48:12;99994.91;;;26.05;78.54
70314;BME280;57725;47.526;18.986;2023-06-22T10:50:38;99989.38;;;26.07;78.49
70314;BME280;57725;47.526;18.986;2023-06-22T10:53:05;99988.19;;;26.09;78.14
70314;BME280;57725;47.526;18.986;2023-06-22T10:55:33;99988.88;;;26.11;78.42
70314;BME280;57725;47.526;18.986;2023-06-22T10:57:58;99979.69;;;26.14;78.52
70314;BME280;57725;47.526;18.986;2023-06-22T11:00:24;99982.19;;;26.15;78.56
70314;BME280;57725;47.526;18.986;2023-06-22T11:02:49;99987.25;;;26.18;79.10
70314;BME280;57725;47.526;18.986;2023-06-22T11:05:17;99979.84;;;26.20;78.56
70314;BME280;57725;47.526;18.986;2023-06-22T11:07:45;99984.06;;;26.23;78.79
70314;BME280;57725;47.526;18.986;2023-06-22T11:10:14;99980.53;;;26.22;78.88
70314;BME280;57725;47.526;18.986;2023-06-22T11:12:40;99979.09;;;26.28;79.09
70314;BME280;57725;47.526;18.986;2023-06-22T11:15:09;99971.72;;;26.30;79.03
70314;BME280;57725;47.526;18.986;2023-06-22T11:17:36;99979.59;;;26.31;79.13
70314;BME280;57725;47.526;18.986;2023-06-22T11:20:02;99979.25;;;26.35;78.91
70314;BME280;57725;47.526;18.986;2023-06-22T11:22:34;99974.75;;;26.35;79.08
70314;BME280;57725;47.526;18.986;2023-06-22T11:25:00;99968.06;;;26.39;79.23
70314;BME280;57725;47.526;18.986;2023-06-22T11:27:30;99965.22;;;26.41;79.03
70314;BME280;57725;47.526;18.986;2023-06-22T11:29:58;99972.91;;;26.44;78.81
70314;BME280;57725;47.526;18.986;2023-06-22T11:32:26;99965.72;;;26.44;78.94
70314;BME280;57725;47.526;18.986;2023-06-22T11:34:51;99972.44;;;26.48;79.08
70314;BME280;57725;47.526;18.986;2023-06-22T11:37:17;99974.94;;;26.50;78.56
70314;BME280;57725;47.526;18.986;2023-06-22T11:39:42;99963.06;;;26.52;78.85
70314;BME280;57725;47.526;18.986;2023-06-22T11:42:10;99964.56;;;26.55;78.36
70314;BME280;57725;47.526;18.986;2023-06-22T11:44:36;99956.34;;;26.56;78.45
70314;BME280;57725;47.526;18.986;2023-06-22T11:47:04;99952.66;;;26.57;78.95
70314;BME280;57725;47.526;18.986;2023-06-22T11:49:35;99959.38;;;26.61;78.53
70314;BME280;57725;47.526;18.986;2023-06-22T11:52:02;99956.53;;;26.63;79.11
70314;BME280;57725;47.526;18.986;2023-06-22T11:54:30;99958.88;;;26.66;78.46
70314;BME280;57725;47.526;18.986;2023-06-22T11:56:55;99956.03;;;26.67;78.63
70314;BME280;57725;47.526;18.986;2023-06-22T11:59:21;99942.59;;;26.67;78.34
70314;BME280;57725;47.526;18.986;2023-06-22T12:01:47;99946.66;;;26.72;78.47
70314;BME280;57725;47.526;18.986;2023-06-22T12:04:12;99950.84;;;26.74;78.63
70314;BME280;57725;47.526;18.986;2023-06-22T12:06:46;99938.28;;;26.75;78.17
70314;BME280;57725;47.526;18.986;2023-06-22T12:09:12;99947.63;;;26.79;78.14
70314;BME280;57725;47.526;18.986;2023-06-22T12:11:39;99949.47;;;26.78;78.45
70314;BME280;57725;47.526;18.986;2023-06-22T12:14:04;99934.91;;;26.81;78.02
70314;BME280;57725;47.526;18.986;2023-06-22T12:16:29;99936.41;;;26.83;78.14
70314;BME280;57725;47.526;18.986;2023-06-22T12:18:55;99936.25;;;26.85;77.75
70314;BME280;57725;47.526;18.986;2023-06-22T12:21:23;99930.72;;;26.86;77.96
70314;BME280;57725;47.526;18.986;2023-06-22T12:23:48;99929.72;;;26.87;77.86
70314;BME280;57725;47.526;18.986;2023-06-22T12:26:14;99925.00;;;26.89;77.70
70314;BME280;57725;47.526;18.986;2023-06-22T12:28:39;99917.78;;;26.90;77.65
70314;BME280;57725;47.526;18.986;2023-06-22T12:31:05;99917.78;;;26.90;77.46
70314;BME280;57725;47.526;18.986;2023-06-22T12:33:32;99912.25;;;26.91;77.75
70314;BME280;57725;47.526;18.986;2023-06-22T12:36:03;99908.44;;;26.94;77.46
70314;BME280;57725;47.526;18.986;2023-06-22T12:38:30;99917.84;;;26.98;77.52
70314;BME280;57725;47.526;18.986;2023-06-22T12:41:00;99916.00;;;26.98;77.42
70314;BME280;57725;47.526;18.986;2023-06-22T12:43:26;99910.44;;;27.00;77.60
70314;BME280;57725;47.526;18.986;2023-06-22T12:45:51;99914.63;;;27.02;77.60
70314;BME280;57725;47.526;18.986;2023-06-22T12:48:18;99909.94;;;27.04;77.36
70314;BME280;57725;47.526;18.986;2023-06-22T12:50:43;99910.78;;;27.05;77.29
70314;BME280;57725;47.526;18.986;2023-06-22T12:53:09;99911.44;;;27.07;77.30